Terminal Aerodrome Forecast
Issued by NWS Grand Rapids, MI

Home | Current Version | Previous Version | Text Only | Print | Product List | Glossary On
Versions: 1 2 3 4 5 6 7 8 9 10 11 12 13 14 15
000
FTUS43 KGRR 121900 AAA
TAFGRR
TAF AMD
KGRR 121946Z 1220/1318 22008KT P6SM -SHRA VCSH BKN040
     FM130500 25006KT 2SM TSRA OVC015CB
     FM131000 27007KT 4SM BR OVC010
     FM131400 26008KT P6SM BKN080=

USA.gov is the U.S. government's official web portal to all federal, state and local government web resources and services.